Time;durP1;ratioP1;P1;durP2;ratioP2;P2;SDS_P1;SDS_P2;PMS_P1;PMS_P2;Temp;Humidity;BMP_temperature;BMP_pressure;BME280_temperature;BME280_humidity;BME280_pressure;Samples;Min_cycle;Max_cycle;Signal;HPM_P1;HPM_P2
2021/12/20 00:00:48;;;;;;;;;;;7.10;79.20;;;;;;5045565;28;19917;-64
2021/12/20 00:03:15;;;;;;;;;;;7.00;79.80;;;;;;5047605;28;19980;-63
2021/12/20 00:05:41;;;;;;;;;;;7.00;80.00;;;;;;5046497;28;19905;-63
2021/12/20 00:08:07;;;;;;;;;;;6.90;80.00;;;;;;5050196;28;19952;-63
2021/12/20 00:10:34;;;;;;;;;;;6.90;79.80;;;;;;5052494;28;19928;-64
2021/12/20 00:12:59;;;;;;;;;;;7.00;80.10;;;;;;5051931;28;19913;-64
2021/12/20 00:15:25;;;;;;;;;;;7.10;80.20;;;;;;5034397;28;19981;-63
2021/12/20 00:17:51;;;;;;;;;;;7.10;80.10;;;;;;5034975;28;19976;-65
2021/12/20 00:20:20;;;;;;;;;;;7.00;80.10;;;;;;5052002;28;19973;-67
2021/12/20 00:22:46;;;;;;;;;;;6.70;80.50;;;;;;5052957;28;19910;-65
2021/12/20 00:25:11;;;;;;;;;;;6.70;81.00;;;;;;5030640;28;19917;-66
2021/12/20 00:27:40;;;;;;;;;;;6.80;80.50;;;;;;5033247;28;19909;-66
2021/12/20 00:30:08;;;;;;;;;;;6.90;79.30;;;;;;5033970;28;19917;-66
2021/12/20 00:32:33;;;;;;;;;;;6.70;79.40;;;;;;5034364;28;19916;-65
2021/12/20 00:34:59;;;;;;;;;;;6.60;80.20;;;;;;5032503;28;19921;-66
2021/12/20 00:40:22;;;;;;;;;;;6.50;81.20;;;;;;5028645;28;19932;-65
2021/12/20 00:42:54;;;;;;;;;;;6.50;80.80;;;;;;5027542;28;20301;-64
2021/12/20 00:45:21;;;;;;;;;;;6.60;80.20;;;;;;5027184;28;19909;-67
2021/12/20 00:47:46;;;;;;;;;;;6.50;79.10;;;;;;5027630;28;19917;-64
2021/12/20 00:50:14;;;;;;;;;;;6.40;79.00;;;;;;5021086;28;19909;-64
2021/12/20 00:52:42;;;;;;;;;;;6.60;78.90;;;;;;5025033;28;19918;-65
2021/12/20 00:55:07;;;;;;;;;;;6.60;78.30;;;;;;5026703;28;19972;-65
2021/12/20 00:57:34;;;;;;;;;;;6.70;77.50;;;;;;5026476;28;19909;-64
2021/12/20 01:00:01;;;;;;;;;;;6.50;77.80;;;;;;5021423;28;19913;-64
2021/12/20 01:02:26;;;;;;;;;;;6.40;78.20;;;;;;5022420;28;19951;-62
2021/12/20 01:04:53;;;;;;;;;;;6.40;78.70;;;;;;5021444;28;19917;-67
2021/12/20 01:07:19;;;;;;;;;;;6.40;77.70;;;;;;5025765;28;19910;-64
2021/12/20 01:09:44;;;;;;;;;;;6.40;78.30;;;;;;5028372;28;20000;-63
2021/12/20 01:12:16;;;;;;;;;;;6.40;78.50;;;;;;5029057;28;19917;-63
2021/12/20 01:14:43;;;;;;;;;;;6.40;77.80;;;;;;5027514;28;19948;-67
2021/12/20 01:17:08;;;;;;;;;;;6.30;77.60;;;;;;5026474;28;20365;-64
2021/12/20 01:19:34;;;;;;;;;;;6.40;76.10;;;;;;5025883;28;19989;-63
2021/12/20 01:22:01;;;;;;;;;;;6.20;75.70;;;;;;5028019;28;20281;-64
2021/12/20 01:24:27;;;;;;;;;;;6.30;75.60;;;;;;5027378;28;19992;-64
2021/12/20 01:26:54;;;;;;;;;;;6.40;74.20;;;;;;5046493;28;19921;-64
2021/12/20 01:29:20;;;;;;;;;;;6.30;74.70;;;;;;5046524;28;19913;-63
2021/12/20 01:31:45;;;;;;;;;;;6.50;74.30;;;;;;5049567;28;19909;-64
2021/12/20 01:34:11;;;;;;;;;;;6.30;75.90;;;;;;5048864;28;19943;-62
2021/12/20 01:36:36;;;;;;;;;;;6.20;76.60;;;;;;5049753;28;20009;-64
2021/12/20 01:39:03;;;;;;;;;;;6.10;77.10;;;;;;5049979;28;19932;-64
2021/12/20 01:41:28;;;;;;;;;;;6.10;77.50;;;;;;5048601;28;19909;-64
2021/12/20 01:43:54;;;;;;;;;;;6.00;77.70;;;;;;5045834;28;20368;-64
2021/12/20 01:46:21;;;;;;;;;;;6.00;78.10;;;;;;5048915;28;19909;-62
2021/12/20 01:48:47;;;;;;;;;;;6.00;78.70;;;;;;5048874;28;19915;-65
2021/12/20 01:51:43;;;;;;;;;;;5.90;78.40;;;;;;5049500;28;19909;-63
2021/12/20 01:54:04;;;;;;;;;;;6.10;76.80;;;;;;5050012;28;20064;-62
2021/12/20 01:56:33;;;;;;;;;;;6.10;75.20;;;;;;5050971;28;19917;-64
2021/12/20 01:59:05;;;;;;;;;;;6.00;75.30;;;;;;5048710;28;19909;-65
2021/12/20 02:01:31;;;;;;;;;;;5.90;76.00;;;;;;5046366;28;20257;-64
2021/12/20 02:04:01;;;;;;;;;;;6.00;75.00;;;;;;5047410;28;19920;-63
2021/12/20 02:06:34;;;;;;;;;;;6.00;72.80;;;;;;5049671;28;19910;-64
2021/12/20 02:09:07;;;;;;;;;;;6.30;72.30;;;;;;5049094;28;19982;-64
2021/12/20 02:11:33;;;;;;;;;;;6.00;72.20;;;;;;5048056;28;20258;-63
2021/12/20 02:13:59;;;;;;;;;;;5.90;72.70;;;;;;5047409;28;19913;-63
2021/12/20 02:16:25;;;;;;;;;;;6.00;73.10;;;;;;5049067;28;19916;-64
2021/12/20 02:18:52;;;;;;;;;;;6.20;70.80;;;;;;5049769;28;19909;-62
2021/12/20 02:21:19;;;;;;;;;;;6.20;70.60;;;;;;5048720;28;20359;-64
2021/12/20 02:23:45;;;;;;;;;;;6.20;69.50;;;;;;5048101;28;19910;-65
2021/12/20 02:26:14;;;;;;;;;;;6.00;70.10;;;;;;5045962;28;19921;-64
2021/12/20 02:28:45;;;;;;;;;;;5.80;71.50;;;;;;5050035;28;20368;-62
2021/12/20 02:38:58;;;;;;;;;;;5.70;72.50;;;;;;5049148;28;19914;-64
2021/12/20 02:41:28;;;;;;;;;;;5.70;72.60;;;;;;5048929;28;19908;-66
2021/12/20 02:43:57;;;;;;;;;;;5.70;72.00;;;;;;5049896;28;19910;-65
2021/12/20 02:49:08;;;;;;;;;;;5.60;72.70;;;;;;5046646;28;19916;-66
2021/12/20 02:51:35;;;;;;;;;;;5.50;73.70;;;;;;5047517;28;19910;-64
2021/12/20 02:54:01;;;;;;;;;;;5.50;74.70;;;;;;5047240;28;19924;-67
2021/12/20 02:56:28;;;;;;;;;;;5.40;75.20;;;;;;5048152;28;19915;-66
2021/12/20 02:58:53;;;;;;;;;;;5.60;75.00;;;;;;5030815;28;19909;-66
2021/12/20 03:01:21;;;;;;;;;;;5.70;74.10;;;;;;5032454;28;19940;-64
2021/12/20 03:03:48;;;;;;;;;;;5.50;74.70;;;;;;5049894;28;19932;-65
2021/12/20 03:06:26;;;;;;;;;;;5.70;74.60;;;;;;5033038;28;19959;-65
2021/12/20 03:08:55;;;;;;;;;;;5.70;74.50;;;;;;5049471;28;19909;-65
2021/12/20 03:11:24;;;;;;;;;;;5.50;75.70;;;;;;5047619;28;19916;-65
2021/12/20 03:13:53;;;;;;;;;;;5.40;75.70;;;;;;5048015;28;19917;-66
2021/12/20 03:16:19;;;;;;;;;;;5.20;76.10;;;;;;5045592;28;19919;-66
2021/12/20 03:18:47;;;;;;;;;;;5.20;76.60;;;;;;5047105;28;19913;-66
2021/12/20 03:21:13;;;;;;;;;;;5.50;75.90;;;;;;5046458;28;19916;-64
2021/12/20 03:23:38;;;;;;;;;;;5.40;76.10;;;;;;5041979;28;19940;-68
2021/12/20 03:26:04;;;;;;;;;;;5.30;76.60;;;;;;5041452;28;19989;-64
2021/12/20 03:28:29;;;;;;;;;;;5.30;76.90;;;;;;5048393;28;19913;-62
2021/12/20 03:30:55;;;;;;;;;;;5.30;76.70;;;;;;5048884;28;19909;-63
2021/12/20 03:33:21;;;;;;;;;;;5.40;75.70;;;;;;5048871;28;19944;-64
2021/12/20 03:35:48;;;;;;;;;;;5.40;75.60;;;;;;5049609;28;20266;-64
2021/12/20 03:38:13;;;;;;;;;;;5.30;76.30;;;;;;5048137;28;19913;-63
2021/12/20 03:40:39;;;;;;;;;;;5.30;76.70;;;;;;5048013;28;19913;-65
2021/12/20 03:43:06;;;;;;;;;;;5.20;77.40;;;;;;5053347;28;19910;-63
2021/12/20 03:45:32;;;;;;;;;;;5.10;77.00;;;;;;5052579;28;19933;-63
2021/12/20 03:47:57;;;;;;;;;;;5.20;78.70;;;;;;5052651;28;19909;-64
2021/12/20 03:50:24;;;;;;;;;;;5.20;77.40;;;;;;5027631;28;20395;-63
2021/12/20 03:52:50;;;;;;;;;;;5.20;77.00;;;;;;5047946;28;19940;-63
2021/12/20 03:55:15;;;;;;;;;;;5.40;75.60;;;;;;5053085;28;19917;-63
2021/12/20 03:57:41;;;;;;;;;;;5.60;74.90;;;;;;5054818;28;19909;-63
2021/12/20 04:00:10;;;;;;;;;;;5.30;74.30;;;;;;5035997;28;19909;-64
2021/12/20 04:02:41;;;;;;;;;;;5.10;75.50;;;;;;5051902;28;19910;-62
2021/12/20 04:05:10;;;;;;;;;;;5.00;76.70;;;;;;5048849;28;20004;-62
2021/12/20 04:07:36;;;;;;;;;;;4.90;77.10;;;;;;5052784;28;19909;-62
2021/12/20 04:10:02;;;;;;;;;;;5.20;76.00;;;;;;5054012;28;19917;-63
2021/12/20 04:12:28;;;;;;;;;;;5.30;74.40;;;;;;5049737;28;19991;-62
2021/12/20 04:14:53;;;;;;;;;;;5.10;75.30;;;;;;5050758;28;19917;-66
2021/12/20 04:17:19;;;;;;;;;;;5.20;75.50;;;;;;5052610;28;20002;-63
2021/12/20 04:19:44;;;;;;;;;;;5.30;74.30;;;;;;5052439;28;19916;-63
2021/12/20 04:22:10;;;;;;;;;;;5.20;75.10;;;;;;5044328;28;19916;-63
2021/12/20 04:24:36;;;;;;;;;;;5.00;75.90;;;;;;5049326;28;19909;-63
2021/12/20 04:27:01;;;;;;;;;;;4.90;76.60;;;;;;5051562;28;19917;-62
2021/12/20 04:29:29;;;;;;;;;;;4.80;77.00;;;;;;5046852;28;19909;-63
2021/12/20 04:31:55;;;;;;;;;;;4.60;77.30;;;;;;5048990;28;19909;-65
2021/12/20 04:34:21;;;;;;;;;;;4.60;77.60;;;;;;5050955;28;20416;-62
2021/12/20 04:36:47;;;;;;;;;;;4.60;78.80;;;;;;5051403;28;20056;-63
2021/12/20 04:39:17;;;;;;;;;;;4.90;79.00;;;;;;5032272;28;20375;-62
2021/12/20 04:41:43;;;;;;;;;;;4.90;78.20;;;;;;5030835;28;19917;-66
2021/12/20 04:44:09;;;;;;;;;;;4.90;77.60;;;;;;5050341;28;20287;-65
2021/12/20 04:46:34;;;;;;;;;;;4.80;78.00;;;;;;5050037;28;19916;-66
2021/12/20 04:49:00;;;;;;;;;;;4.80;79.00;;;;;;5052443;28;19920;-67
2021/12/20 04:51:26;;;;;;;;;;;5.10;79.40;;;;;;5052790;28;19980;-64
2021/12/20 04:53:51;;;;;;;;;;;5.20;78.10;;;;;;5053098;28;19947;-65
2021/12/20 04:56:17;;;;;;;;;;;5.00;77.50;;;;;;5053067;28;19917;-65
2021/12/20 04:58:43;;;;;;;;;;;5.00;78.60;;;;;;5053246;28;19924;-66
2021/12/20 05:01:08;;;;;;;;;;;4.80;78.20;;;;;;5053031;28;19949;-66
2021/12/20 05:03:37;;;;;;;;;;;4.70;80.10;;;;;;5033970;28;19909;-65
2021/12/20 05:06:05;;;;;;;;;;;4.50;79.50;;;;;;5052134;28;19909;-64
2021/12/20 05:08:44;;;;;;;;;;;4.40;80.80;;;;;;5052199;28;19920;-66
2021/12/20 05:11:10;;;;;;;;;;;4.40;81.30;;;;;;5052198;28;19916;-65
2021/12/20 05:13:36;;;;;;;;;;;4.40;80.60;;;;;;5051140;28;19913;-66
2021/12/20 05:16:04;;;;;;;;;;;4.40;81.60;;;;;;5051685;28;19920;-68
2021/12/20 05:18:30;;;;;;;;;;;4.50;83.10;;;;;;5050186;28;19913;-65
2021/12/20 05:20:56;;;;;;;;;;;4.50;81.60;;;;;;5032383;28;19956;-66
2021/12/20 05:23:21;;;;;;;;;;;4.50;80.70;;;;;;5048501;28;19918;-64
2021/12/20 05:25:47;;;;;;;;;;;4.50;80.00;;;;;;5049015;28;19921;-64
2021/12/20 05:28:13;;;;;;;;;;;4.50;79.40;;;;;;5030862;28;19909;-64
2021/12/20 05:30:38;;;;;;;;;;;4.60;78.10;;;;;;5028255;28;19995;-65
2021/12/20 05:33:04;;;;;;;;;;;4.60;78.00;;;;;;5044914;28;19913;-67
2021/12/20 05:35:30;;;;;;;;;;;4.70;76.90;;;;;;5041617;28;19928;-66
2021/12/20 05:37:57;;;;;;;;;;;5.00;73.40;;;;;;5047175;28;19909;-69
2021/12/20 05:40:23;;;;;;;;;;;5.20;72.80;;;;;;5046411;28;19941;-67
2021/12/20 05:42:48;;;;;;;;;;;5.40;72.80;;;;;;5042789;28;19913;-65
2021/12/20 05:45:16;;;;;;;;;;;5.40;71.70;;;;;;5044593;28;19909;-66
2021/12/20 05:47:42;;;;;;;;;;;5.40;71.70;;;;;;5049226;28;19916;-66
2021/12/20 05:50:11;;;;;;;;;;;5.40;71.40;;;;;;5048182;28;19909;-65
2021/12/20 05:52:36;;;;;;;;;;;5.30;71.20;;;;;;5030951;28;19909;-64
2021/12/20 05:55:03;;;;;;;;;;;5.30;70.00;;;;;;5048249;28;19917;-63
2021/12/20 05:57:29;;;;;;;;;;;5.40;70.80;;;;;;5049336;28;19915;-64
2021/12/20 05:59:55;;;;;;;;;;;5.50;69.40;;;;;;5045208;28;19909;-66
2021/12/20 06:02:21;;;;;;;;;;;5.70;66.50;;;;;;5051564;28;19909;-68
2021/12/20 06:04:50;;;;;;;;;;;5.90;64.90;;;;;;5049459;28;19909;-64
2021/12/20 06:07:19;;;;;;;;;;;6.10;63.50;;;;;;5046705;28;19931;-66
2021/12/20 06:09:47;;;;;;;;;;;6.30;62.20;;;;;;5045040;28;19909;-66
2021/12/20 06:12:12;;;;;;;;;;;6.50;61.20;;;;;;5044813;28;20012;-65
2021/12/20 06:14:38;;;;;;;;;;;6.50;61.20;;;;;;5043329;28;19917;-66
2021/12/20 06:17:04;;;;;;;;;;;6.40;61.70;;;;;;5046067;28;20356;-64
2021/12/20 06:19:29;;;;;;;;;;;6.40;60.70;;;;;;5045217;28;19928;-74
2021/12/20 06:21:55;;;;;;;;;;;6.50;60.40;;;;;;5041796;28;19909;-67
2021/12/20 06:24:21;;;;;;;;;;;6.70;59.70;;;;;;5044251;28;19909;-67
2021/12/20 06:26:48;;;;;;;;;;;6.70;59.40;;;;;;5041900;28;20343;-64
2021/12/20 06:29:15;;;;;;;;;;;6.60;59.70;;;;;;5043345;28;19965;-64
2021/12/20 06:31:40;;;;;;;;;;;6.70;59.20;;;;;;5042104;28;19971;-63
2021/12/20 06:34:06;;;;;;;;;;;6.70;59.10;;;;;;5040782;28;19924;-66
2021/12/20 06:36:32;;;;;;;;;;;6.80;58.90;;;;;;5040922;28;19909;-65
2021/12/20 06:38:58;;;;;;;;;;;6.90;58.40;;;;;;5025061;28;20000;-63
2021/12/20 06:41:25;;;;;;;;;;;6.80;58.60;;;;;;5041928;28;19909;-69
2021/12/20 06:43:50;;;;;;;;;;;6.90;58.60;;;;;;5042615;28;19913;-66
2021/12/20 06:46:18;;;;;;;;;;;6.90;58.50;;;;;;5043186;28;19909;-65
2021/12/20 06:48:43;;;;;;;;;;;6.80;58.70;;;;;;5039179;28;19916;-63
2021/12/20 06:51:09;;;;;;;;;;;6.80;58.70;;;;;;5040953;28;19909;-64
2021/12/20 06:53:35;;;;;;;;;;;6.90;58.30;;;;;;5023648;28;19913;-65
2021/12/20 06:56:00;;;;;;;;;;;6.90;58.50;;;;;;5040947;28;19913;-65
2021/12/20 06:58:27;;;;;;;;;;;6.80;58.50;;;;;;5044466;28;19940;-65
2021/12/20 07:00:53;;;;;;;;;;;6.90;58.50;;;;;;5046614;28;19948;-64
2021/12/20 07:03:19;;;;;;;;;;;7.00;58.10;;;;;;5044239;28;19909;-66
2021/12/20 07:05:45;;;;;;;;;;;7.00;57.90;;;;;;5044257;28;19909;-65
2021/12/20 07:08:12;;;;;;;;;;;7.10;57.50;;;;;;5040588;28;19963;-65
2021/12/20 07:10:37;;;;;;;;;;;7.10;57.60;;;;;;5041249;28;20403;-63
2021/12/20 07:13:04;;;;;;;;;;;7.20;57.20;;;;;;5042282;28;19909;-64
2021/12/20 07:15:31;;;;;;;;;;;7.20;56.90;;;;;;5038926;28;20364;-66
2021/12/20 07:17:57;;;;;;;;;;;7.20;57.00;;;;;;5038625;28;19913;-66
2021/12/20 07:20:23;;;;;;;;;;;7.20;56.90;;;;;;5040382;28;20390;-63
2021/12/20 07:22:49;;;;;;;;;;;7.30;56.80;;;;;;5042819;28;19917;-65
2021/12/20 07:25:15;;;;;;;;;;;7.30;56.60;;;;;;5042700;28;19917;-67
2021/12/20 07:27:41;;;;;;;;;;;7.40;56.60;;;;;;5022081;28;20000;-66
2021/12/20 07:30:07;;;;;;;;;;;7.40;56.30;;;;;;5040723;28;19910;-60
2021/12/20 07:32:32;;;;;;;;;;;7.60;57.00;;;;;;5040194;28;19915;-60
2021/12/20 07:34:58;;;;;;;;;;;8.00;57.20;;;;;;5039613;28;19917;-58
2021/12/20 07:37:26;;;;;;;;;;;8.00;56.60;;;;;;5039375;28;19909;-60
2021/12/20 07:39:53;;;;;;;;;;;8.20;55.80;;;;;;5039699;28;19913;-59
2021/12/20 07:42:18;;;;;;;;;;;8.20;54.40;;;;;;5038370;28;20377;-59
2021/12/20 07:44:45;;;;;;;;;;;8.40;55.10;;;;;;5038641;28;19916;-59
2021/12/20 07:47:11;;;;;;;;;;;8.50;54.00;;;;;;5019194;28;20000;-61
2021/12/20 07:49:38;;;;;;;;;;;8.60;53.80;;;;;;5038883;28;19940;-61
2021/12/20 07:52:04;;;;;;;;;;;8.70;53.40;;;;;;5036788;28;20409;-61
2021/12/20 07:54:30;;;;;;;;;;;8.70;52.30;;;;;;5037807;28;19918;-62
2021/12/20 07:56:55;;;;;;;;;;;8.70;52.80;;;;;;5037531;28;20418;-65
2021/12/20 07:59:21;;;;;;;;;;;8.40;52.00;;;;;;5038743;28;19917;-64
2021/12/20 08:01:48;;;;;;;;;;;8.30;52.50;;;;;;5038885;28;19948;-63
2021/12/20 08:04:15;;;;;;;;;;;8.20;52.90;;;;;;5037722;28;19916;-64
2021/12/20 08:06:43;;;;;;;;;;;8.20;53.10;;;;;;5038507;28;19917;-66
2021/12/20 08:09:10;;;;;;;;;;;8.30;52.20;;;;;;5035910;28;20293;-63
2021/12/20 08:11:36;;;;;;;;;;;8.40;52.20;;;;;;5034849;28;19996;-64
2021/12/20 08:14:01;;;;;;;;;;;8.40;51.70;;;;;;5034876;28;20423;-62
2021/12/20 08:16:27;;;;;;;;;;;8.50;51.40;;;;;;5037672;28;19952;-61
2021/12/20 08:18:52;;;;;;;;;;;8.50;51.20;;;;;;5039142;28;19913;-62
2021/12/20 08:21:18;;;;;;;;;;;8.60;50.70;;;;;;5017063;28;20004;-62
2021/12/20 08:23:44;;;;;;;;;;;8.70;50.60;;;;;;5036441;28;19909;-62
2021/12/20 08:26:10;;;;;;;;;;;8.70;50.20;;;;;;5035988;28;19932;-63
2021/12/20 08:28:35;;;;;;;;;;;8.80;50.20;;;;;;5040379;28;20407;-69
2021/12/20 08:31:05;;;;;;;;;;;8.80;49.70;;;;;;5042265;28;19913;-66
2021/12/20 08:33:32;;;;;;;;;;;8.90;49.60;;;;;;5043030;28;19928;-61
2021/12/20 08:36:01;;;;;;;;;;;8.90;49.50;;;;;;5041367;28;19920;-59
2021/12/20 08:38:27;;;;;;;;;;;8.90;49.50;;;;;;5038229;28;19916;-59
2021/12/20 08:40:53;;;;;;;;;;;9.00;49.10;;;;;;5043123;28;19913;-59
2021/12/20 08:43:20;;;;;;;;;;;9.10;48.80;;;;;;5038856;28;19916;-60
2021/12/20 08:45:46;;;;;;;;;;;9.10;48.80;;;;;;5037914;28;19909;-59
2021/12/20 08:48:11;;;;;;;;;;;9.10;48.80;;;;;;5041218;28;19909;-60
2021/12/20 08:50:37;;;;;;;;;;;9.20;48.30;;;;;;5040548;28;19995;-60
2021/12/20 08:53:03;;;;;;;;;;;9.20;48.30;;;;;;5043139;28;19948;-62
2021/12/20 08:55:30;;;;;;;;;;;9.20;48.10;;;;;;5048740;28;19923;-61
2021/12/20 08:57:57;;;;;;;;;;;9.20;48.10;;;;;;5048917;28;20015;-62
2021/12/20 09:00:25;;;;;;;;;;;9.40;47.20;;;;;;5045299;28;19909;-62
2021/12/20 09:02:51;;;;;;;;;;;9.40;47.20;;;;;;5045337;28;19996;-61
2021/12/20 09:05:17;;;;;;;;;;;9.40;46.90;;;;;;5045759;28;20006;-63
2021/12/20 09:07:43;;;;;;;;;;;9.60;46.40;;;;;;5039730;28;20328;-61
2021/12/20 09:10:09;;;;;;;;;;;9.60;46.00;;;;;;5038838;28;19910;-60
2021/12/20 09:12:37;;;;;;;;;;;9.70;46.10;;;;;;5038984;28;20261;-63
2021/12/20 09:15:04;;;;;;;;;;;9.70;45.90;;;;;;5020759;28;19979;-61
2021/12/20 09:17:30;;;;;;;;;;;9.80;46.00;;;;;;5038170;28;19917;-64
2021/12/20 09:19:55;;;;;;;;;;;9.90;45.70;;;;;;5038471;28;19931;-68
2021/12/20 09:22:26;;;;;;;;;;;9.90;45.90;;;;;;5039108;28;19906;-64
2021/12/20 09:24:52;;;;;;;;;;;9.90;45.70;;;;;;5038746;28;20392;-63
2021/12/20 09:27:18;;;;;;;;;;;10.00;45.40;;;;;;5038096;28;19974;-64
2021/12/20 09:29:46;;;;;;;;;;;10.00;45.60;;;;;;5038032;28;20011;-62
2021/12/20 09:32:11;;;;;;;;;;;9.90;45.90;;;;;;5020036;28;20443;-63
2021/12/20 09:34:37;;;;;;;;;;;10.00;45.50;;;;;;5036616;28;19917;-61
2021/12/20 09:37:06;;;;;;;;;;;10.00;45.60;;;;;;5039097;28;19999;-66
2021/12/20 09:39:33;;;;;;;;;;;10.00;45.30;;;;;;5038719;28;19916;-62
2021/12/20 09:42:03;;;;;;;;;;;10.20;45.10;;;;;;5039648;28;19909;-67
2021/12/20 09:44:29;;;;;;;;;;;10.30;44.20;;;;;;5039734;28;19949;-62
2021/12/20 09:46:55;;;;;;;;;;;10.30;44.50;;;;;;5024597;28;19916;-61
2021/12/20 09:49:21;;;;;;;;;;;10.30;44.70;;;;;;5041304;28;19913;-64
2021/12/20 09:51:46;;;;;;;;;;;10.40;43.70;;;;;;5039544;28;19935;-63
2021/12/20 09:54:12;;;;;;;;;;;10.40;43.60;;;;;;5039426;28;19979;-65
2021/12/20 09:56:38;;;;;;;;;;;10.50;43.10;;;;;;5021140;28;19955;-61
2021/12/20 09:59:05;;;;;;;;;;;10.60;42.30;;;;;;5031754;28;19959;-61
2021/12/20 10:01:31;;;;;;;;;;;10.60;42.30;;;;;;5036986;28;20391;-63
2021/12/20 10:03:56;;;;;;;;;;;10.60;42.00;;;;;;5037210;28;19970;-64
2021/12/20 10:06:23;;;;;;;;;;;10.80;41.70;;;;;;5041054;28;19967;-62
2021/12/20 10:08:51;;;;;;;;;;;10.80;41.70;;;;;;5043276;28;19909;-63
2021/12/20 10:11:22;;;;;;;;;;;10.80;41.20;;;;;;5043311;28;19944;-64
2021/12/20 10:13:48;;;;;;;;;;;10.80;40.50;;;;;;5041130;28;19913;-69
2021/12/20 10:16:22;;;;;;;;;;;10.90;40.60;;;;;;5037160;28;19996;-64
2021/12/20 10:18:48;;;;;;;;;;;10.90;40.20;;;;;;5020007;28;19916;-64
2021/12/20 10:21:14;;;;;;;;;;;11.00;40.00;;;;;;5039075;28;19972;-62
2021/12/20 10:23:44;;;;;;;;;;;11.00;39.80;;;;;;5042467;28;19973;-61
2021/12/20 10:26:12;;;;;;;;;;;11.10;39.60;;;;;;5040104;28;19936;-62
2021/12/20 10:28:38;;;;;;;;;;;11.20;39.30;;;;;;5039808;28;19913;-63
2021/12/20 10:31:07;;;;;;;;;;;11.20;39.00;;;;;;5005847;28;19920;-64
2021/12/20 10:33:33;;;;;;;;;;;11.20;39.30;;;;;;5034430;28;20408;-63
2021/12/20 10:36:01;;;;;;;;;;;11.20;38.70;;;;;;5041579;28;19913;-63
2021/12/20 10:38:38;;;;;;;;;;;11.30;38.70;;;;;;5020295;28;19937;-63
2021/12/20 10:41:32;;;;;;;;;;;11.40;38.60;;;;;;5027162;28;21410;-63
2021/12/20 10:44:01;;;;;;;;;;;11.30;38.00;;;;;;5040732;28;20022;-62
2021/12/20 10:46:33;;;;;;;;;;;11.40;38.10;;;;;;5038967;28;19966;-63
2021/12/20 10:48:59;;;;;;;;;;;11.40;37.80;;;;;;5017656;28;20057;-63
2021/12/20 10:51:28;;;;;;;;;;;11.50;37.30;;;;;;5037626;28;19949;-62
2021/12/20 10:54:00;;;;;;;;;;;11.40;37.60;;;;;;5039016;28;19916;-61
2021/12/20 10:56:34;;;;;;;;;;;11.50;37.50;;;;;;5038583;28;19916;-62
2021/12/20 10:59:01;;;;;;;;;;;11.50;37.20;;;;;;5039051;28;19995;-62
2021/12/20 11:04:11;;;;;;;;;;;11.70;36.10;;;;;;5039338;28;20300;-62
2021/12/20 11:09:23;;;;;;;;;;;11.80;35.90;;;;;;5036750;28;19917;-61
2021/12/20 11:11:57;;;;;;;;;;;11.90;35.90;;;;;;5038797;28;19992;-60
2021/12/20 11:14:42;;;;;;;;;;;11.80;35.70;;;;;;5035689;28;20492;-61
2021/12/20 11:17:08;;;;;;;;;;;11.80;35.30;;;;;;5019624;28;19932;-62
2021/12/20 11:19:35;;;;;;;;;;;11.80;35.10;;;;;;5020835;28;20375;-63
2021/12/20 11:22:11;;;;;;;;;;;11.70;35.20;;;;;;5040320;28;19944;-62
2021/12/20 11:24:56;;;;;;;;;;;11.80;35.20;;;;;;5019548;28;20312;-70
2021/12/20 11:27:23;;;;;;;;;;;12.00;34.50;;;;;;5040619;28;19921;-63
2021/12/20 11:29:50;;;;;;;;;;;11.90;34.80;;;;;;5036930;28;19913;-64
2021/12/20 11:32:16;;;;;;;;;;;12.00;34.40;;;;;;5037193;28;19915;-63
2021/12/20 11:34:42;;;;;;;;;;;12.10;34.10;;;;;;5019831;28;19925;-61
2021/12/20 11:37:09;;;;;;;;;;;12.10;34.30;;;;;;5019523;28;20272;-62
2021/12/20 11:39:35;;;;;;;;;;;12.00;34.60;;;;;;5039929;28;19913;-61
2021/12/20 11:42:01;;;;;;;;;;;12.10;34.00;;;;;;5039294;28;19917;-62
2021/12/20 11:44:28;;;;;;;;;;;12.10;33.90;;;;;;5021995;28;20028;-61
2021/12/20 11:47:07;;;;;;;;;;;12.00;34.10;;;;;;5039941;28;19909;-62
2021/12/20 11:49:33;;;;;;;;;;;12.10;34.00;;;;;;5039703;28;20437;-70
2021/12/20 11:52:01;;;;;;;;;;;12.10;34.10;;;;;;5039587;28;20245;-67
2021/12/20 11:54:37;;;;;;;;;;;12.20;33.80;;;;;;5040123;28;19943;-63
2021/12/20 11:57:03;;;;;;;;;;;12.30;33.60;;;;;;5040105;28;19925;-64
2021/12/20 11:59:47;;;;;;;;;;;12.10;34.00;;;;;;5041417;28;19916;-65
2021/12/20 12:02:19;;;;;;;;;;;12.20;33.80;;;;;;5039451;28;19909;-66
2021/12/20 12:04:56;;;;;;;;;;;12.20;33.30;;;;;;5043671;28;19944;-65
2021/12/20 12:07:23;;;;;;;;;;;12.30;33.60;;;;;;5042839;28;19910;-64
2021/12/20 12:10:09;;;;;;;;;;;12.30;33.70;;;;;;5044620;28;19909;-63
2021/12/20 12:12:40;;;;;;;;;;;12.10;34.10;;;;;;5045475;28;19987;-65
2021/12/20 12:15:08;;;;;;;;;;;12.20;33.30;;;;;;5042337;28;19913;-67
2021/12/20 12:17:53;;;;;;;;;;;12.10;33.50;;;;;;5042727;28;20366;-67
2021/12/20 12:20:36;;;;;;;;;;;12.20;33.60;;;;;;5025399;28;20273;-75
2021/12/20 12:23:31;;;;;;;;;;;12.40;33.30;;;;;;5024135;28;19909;-69
2021/12/20 12:25:58;;;;;;;;;;;12.30;33.30;;;;;;5025822;28;19924;-67
2021/12/20 12:28:25;;;;;;;;;;;12.30;33.30;;;;;;5041376;28;19909;-68
2021/12/20 12:30:59;;;;;;;;;;;12.30;33.70;;;;;;5043782;28;19917;-71
2021/12/20 12:33:27;;;;;;;;;;;12.30;33.00;;;;;;5041210;28;19915;-64
2021/12/20 12:35:53;;;;;;;;;;;12.40;33.70;;;;;;5041949;28;20420;-67
2021/12/20 12:38:21;;;;;;;;;;;12.30;33.40;;;;;;5042000;28;20308;-70
2021/12/20 12:40:49;;;;;;;;;;;12.20;33.50;;;;;;5041508;28;19909;-66
2021/12/20 12:43:17;;;;;;;;;;;12.20;33.70;;;;;;5041933;28;19916;-67
2021/12/20 12:45:50;;;;;;;;;;;12.10;33.80;;;;;;5043641;28;19916;-69
2021/12/20 12:48:32;;;;;;;;;;;12.20;33.10;;;;;;5043723;28;19913;-69
2021/12/20 12:51:03;;;;;;;;;;;12.40;32.60;;;;;;5041184;28;19909;-67
2021/12/20 12:53:42;;;;;;;;;;;12.30;32.70;;;;;;5026001;28;19916;-69
2021/12/20 12:56:23;;;;;;;;;;;12.30;33.10;;;;;;5042429;28;20415;-64
2021/12/20 12:59:08;;;;;;;;;;;12.20;33.50;;;;;;5041372;28;20008;-67
2021/12/20 13:01:34;;;;;;;;;;;12.20;32.90;;;;;;5042729;28;19909;-65
2021/12/20 13:04:00;;;;;;;;;;;12.20;33.00;;;;;;5040438;28;19916;-70
2021/12/20 13:06:25;;;;;;;;;;;12.20;33.00;;;;;;5039253;28;19939;-63
2021/12/20 13:08:52;;;;;;;;;;;12.00;33.00;;;;;;5039771;28;20500;-66
2021/12/20 13:11:22;;;;;;;;;;;12.00;32.50;;;;;;5039616;28;19916;-66
2021/12/20 13:13:55;;;;;;;;;;;12.00;32.20;;;;;;5039119;28;20269;-68
2021/12/20 13:16:26;;;;;;;;;;;12.10;32.40;;;;;;5039005;28;19921;-71
2021/12/20 13:18:53;;;;;;;;;;;12.10;31.80;;;;;;5039147;28;20354;-71
2021/12/20 13:21:35;;;;;;;;;;;12.10;32.30;;;;;;5039013;28;20280;-69
2021/12/20 13:24:02;;;;;;;;;;;12.10;32.10;;;;;;5041637;28;19935;-66
2021/12/20 13:26:30;;;;;;;;;;;12.00;32.30;;;;;;5024630;28;20016;-68
2021/12/20 13:28:58;;;;;;;;;;;12.00;32.30;;;;;;5023012;28;19933;-68
2021/12/20 13:31:32;;;;;;;;;;;11.90;32.80;;;;;;5041671;28;19909;-63
2021/12/20 13:34:00;;;;;;;;;;;11.90;32.00;;;;;;5042280;28;20284;-66
2021/12/20 13:36:33;;;;;;;;;;;12.00;31.90;;;;;;5022771;28;19932;-69
2021/12/20 13:39:00;;;;;;;;;;;12.10;31.40;;;;;;5025537;28;19920;-66
2021/12/20 13:41:30;;;;;;;;;;;12.00;31.50;;;;;;5042899;28;19941;-70
2021/12/20 13:44:00;;;;;;;;;;;12.00;31.60;;;;;;5042312;28;19964;-65
2021/12/20 13:49:09;;;;;;;;;;;11.70;32.10;;;;;;5044092;28;19909;-65
2021/12/20 13:51:34;;;;;;;;;;;11.80;31.50;;;;;;5042806;28;19952;-67
2021/12/20 13:54:13;;;;;;;;;;;11.80;31.80;;;;;;5041197;28;19913;-64
2021/12/20 13:56:38;;;;;;;;;;;11.80;31.50;;;;;;5041615;28;19916;-64
2021/12/20 13:59:04;;;;;;;;;;;11.90;31.50;;;;;;5040905;28;19910;-67
2021/12/20 14:01:29;;;;;;;;;;;11.80;31.70;;;;;;5044752;28;19973;-64
2021/12/20 14:03:56;;;;;;;;;;;11.80;31.80;;;;;;5042885;28;20360;-65
2021/12/20 14:06:37;;;;;;;;;;;11.80;32.50;;;;;;5041108;28;19955;-65
2021/12/20 14:09:10;;;;;;;;;;;11.80;31.60;;;;;;5019894;28;19920;-68
2021/12/20 14:11:35;;;;;;;;;;;11.70;32.30;;;;;;5040911;28;19919;-65
2021/12/20 14:14:11;;;;;;;;;;;11.60;31.60;;;;;;5041337;28;20020;-64
2021/12/20 14:17:09;;;;;;;;;;;11.60;31.50;;;;;;5040188;28;19917;-65
2021/12/20 14:19:53;;;;;;;;;;;11.60;31.60;;;;;;4970653;28;19917;-65
2021/12/20 14:22:20;;;;;;;;;;;11.50;31.70;;;;;;5041320;28;19936;-66
2021/12/20 14:24:45;;;;;;;;;;;11.50;31.40;;;;;;5040957;28;19909;-64
2021/12/20 14:27:11;;;;;;;;;;;11.50;31.40;;;;;;5037874;28;19932;-62
2021/12/20 14:29:36;;;;;;;;;;;11.50;31.90;;;;;;5037675;28;20011;-66
2021/12/20 14:32:06;;;;;;;;;;;11.60;31.80;;;;;;5024328;28;19913;-62
2021/12/20 14:34:35;;;;;;;;;;;11.60;31.90;;;;;;5041361;28;20020;-66
2021/12/20 14:37:08;;;;;;;;;;;11.40;32.10;;;;;;5037488;28;20369;-66
2021/12/20 14:39:45;;;;;;;;;;;11.30;32.70;;;;;;5020909;28;20226;-71
2021/12/20 14:42:11;;;;;;;;;;;11.40;33.30;;;;;;5038115;28;20359;-69
2021/12/20 14:44:46;;;;;;;;;;;11.40;33.30;;;;;;5040361;28;19913;-66
2021/12/20 14:47:21;;;;;;;;;;;11.30;33.00;;;;;;5037561;28;19913;-66
2021/12/20 14:52:17;;;;;;;;;;;11.40;33.00;;;;;;5037870;28;19909;-67
2021/12/20 14:54:44;;;;;;;;;;;11.40;33.00;;;;;;5040769;28;19918;-66